Capitol Logistics 8038

Operating for GTI



KBWI
Baltimore/Washington International Thurgood Marshall Airport
Baltimore, Maryland
ETAR
Ramstein Air Force Base
Ramstein,

Activity Log

Date Flight Route Aircraft Duration
No Flights Yet

Route Details

Aircraft Information
Primary: Boeing 767-300BDSF
Backup: Not Available
Route Data
Distance: 3485nm
Duration: 7h 25m
Recm'd Route: SWANN3 OOD J42 RBV LLUND BAYYS PUT J42 BOS ALLEX N379A ALLRY NATZ GISTI MORAG Q60 LANON L18 DIKAS UL9 KONAN UL607 SPI T180 PESOV T180 TOBOP T180 NIVNU T847 EMGOD T847 SIPVU T847 OLIVI Q762 XIDOD
Origin Wx: KBWI 142019Z 00000KT 2SM -RA BR SCT008 SCT013 OVC055 15/13 A2997 RMK AO2 SFC VIS 5 P0001 T01500128
Dest. Wx: ETAR 141956Z 13003KT 9999 CLR 03/M04 A3034 RMK AO2A SLPNO T00271039 FZRANO
Notes: USTRANSCOM CONTRACT FLIGHT | 1X PER WEEK | PAYLOAD LIMITED | ETOPS